createdAt,value
2023-03-27T00:00:01.026Z,27.87
2023-03-27T00:04:00.982Z,27.90
2023-03-27T00:08:00.881Z,27.89
2023-03-27T00:12:00.879Z,27.83
2023-03-27T00:16:00.773Z,27.83
2023-03-27T00:20:00.702Z,27.88
2023-03-27T00:24:00.628Z,27.84
2023-03-27T00:28:00.812Z,27.78
2023-03-27T00:32:00.971Z,27.78
2023-03-27T00:36:01.091Z,27.74
2023-03-27T00:40:01.251Z,27.71
2023-03-27T00:44:01.301Z,27.66
2023-03-27T00:48:01.557Z,27.67
2023-03-27T00:52:01.588Z,27.70
2023-03-27T00:56:01.741Z,27.75
2023-03-27T01:00:01.827Z,27.74
2023-03-27T01:04:01.784Z,27.78
2023-03-27T01:08:02.011Z,27.82
2023-03-27T01:12:01.815Z,27.84
2023-03-27T01:16:01.835Z,27.78
2023-03-27T01:20:01.781Z,27.78
2023-03-27T01:24:01.731Z,27.77
2023-03-27T01:28:01.726Z,27.75
2023-03-27T01:32:01.780Z,27.75
2023-03-27T01:36:02.068Z,27.72
2023-03-27T01:40:02.176Z,27.77
2023-03-27T01:44:02.185Z,27.69
2023-03-27T01:48:02.262Z,27.72
2023-03-27T01:52:02.155Z,27.65
2023-03-27T01:56:02.108Z,27.70
2023-03-27T02:00:17.510Z,27.66
2023-03-27T02:04:02.990Z,27.59
2023-03-27T02:08:01.958Z,27.65
2023-03-27T02:12:01.869Z,27.72
2023-03-27T02:16:01.890Z,27.74
2023-03-27T02:20:01.856Z,27.72
2023-03-27T02:24:01.813Z,27.73
2023-03-27T02:28:01.764Z,27.75
2023-03-27T02:32:01.765Z,27.78
2023-03-27T02:36:01.750Z,27.84
2023-03-27T02:40:01.715Z,27.82
2023-03-27T02:44:01.653Z,27.82
2023-03-27T02:48:01.642Z,27.77
2023-03-27T02:52:01.585Z,27.79
2023-03-27T02:56:01.600Z,27.81
2023-03-27T03:00:01.488Z,27.76
2023-03-27T03:04:01.462Z,27.73
2023-03-27T03:08:01.417Z,27.72
2023-03-27T03:12:01.370Z,27.69
2023-03-27T03:16:01.325Z,27.68
2023-03-27T03:20:01.268Z,27.65
2023-03-27T03:24:01.350Z,27.65
2023-03-27T03:28:01.230Z,27.53
2023-03-27T03:32:01.186Z,27.47
2023-03-27T03:36:01.192Z,27.52
2023-03-27T03:40:01.179Z,27.43
2023-03-27T03:44:01.128Z,27.41
2023-03-27T03:48:01.163Z,27.38
2023-03-27T03:52:03.785Z,27.29
2023-03-27T03:56:01.084Z,27.28
2023-03-27T04:00:01.051Z,27.24
2023-03-27T04:04:01.008Z,27.16
2023-03-27T04:08:00.957Z,27.22
2023-03-27T04:12:00.882Z,27.13
2023-03-27T04:16:00.903Z,27.05
2023-03-27T04:20:00.801Z,27.04
2023-03-27T04:24:00.683Z,27.08
2023-03-27T04:28:00.625Z,27.06
2023-03-27T04:32:00.526Z,26.93
2023-03-27T04:36:05.498Z,26.86
2023-03-27T04:40:01.386Z,26.82
2023-03-27T04:44:00.387Z,26.95
2023-03-27T04:48:00.385Z,27.04
2023-03-27T04:52:00.232Z,28.61
2023-03-27T04:56:00.145Z,31.48
2023-03-27T05:00:00.334Z,33.67
2023-03-27T05:04:00.554Z,32.33
2023-03-27T05:08:00.444Z,35.50
2023-03-27T05:12:00.340Z,36.09
2023-03-27T05:16:00.316Z,36.28
2023-03-27T05:20:00.239Z,35.95
2023-03-27T05:24:00.122Z,36.40
2023-03-27T05:28:00.074Z,36.36
2023-03-27T05:32:01.464Z,37.41
2023-03-27T05:35:59.958Z,35.63
2023-03-27T05:39:59.780Z,35.83
2023-03-27T05:43:59.930Z,36.43
2023-03-27T05:47:59.723Z,37.19
2023-03-27T05:51:59.917Z,37.83
2023-03-27T05:56:03.197Z,38.81
2023-03-27T05:59:59.895Z,39.99
2023-03-27T06:03:59.442Z,40.15
2023-03-27T06:07:59.408Z,41.55
2023-03-27T06:11:59.224Z,42.67
2023-03-27T06:15:59.554Z,43.64
2023-03-27T06:19:59.121Z,43.29
2023-03-27T06:23:59.043Z,43.40
2023-03-27T06:27:59.118Z,41.30
2023-03-27T06:31:59.262Z,42.93
2023-03-27T06:36:00.349Z,42.03
2023-03-27T06:39:59.347Z,43.63
2023-03-27T06:43:59.273Z,43.82
2023-03-27T06:48:00.645Z,42.59
2023-03-27T06:52:00.404Z,45.61
2023-03-27T06:55:59.553Z,44.43
2023-03-27T07:00:01.641Z,44.13
2023-03-27T07:03:59.384Z,42.27
2023-03-27T07:08:03.264Z,42.66
2023-03-27T07:11:59.919Z,42.61
2023-03-27T07:15:58.864Z,42.82
2023-03-27T07:19:59.428Z,44.22
2023-03-27T07:23:58.853Z,43.82
2023-03-27T07:27:58.945Z,44.06
2023-03-27T07:32:01.510Z,44.26
2023-03-27T07:35:59.376Z,45.98
2023-03-27T07:39:58.943Z,45.66
2023-03-27T07:43:58.432Z,47.45
2023-03-27T07:47:58.264Z,45.83
2023-03-27T07:51:58.442Z,45.27
2023-03-27T07:55:58.426Z,45.91
2023-03-27T07:59:58.040Z,45.55
2023-03-27T08:03:58.609Z,45.66
2023-03-27T08:07:58.200Z,46.04
2023-03-27T08:11:58.347Z,44.62
2023-03-27T08:15:58.642Z,44.07
2023-03-27T08:19:58.579Z,45.19
2023-03-27T08:23:58.739Z,45.60
2023-03-27T08:27:58.913Z,45.45
2023-03-27T08:31:58.896Z,45.73
2023-03-27T08:35:59.746Z,45.52
2023-03-27T08:39:59.445Z,44.50
2023-03-27T08:43:59.255Z,45.80
2023-03-27T08:47:59.297Z,45.99
2023-03-27T08:51:59.508Z,46.43
2023-03-27T08:55:59.491Z,45.83
2023-03-27T08:59:59.354Z,45.49
2023-03-27T09:03:59.522Z,46.64
2023-03-27T09:07:59.361Z,46.99
2023-03-27T09:11:59.390Z,46.89
2023-03-27T09:15:59.820Z,46.68
2023-03-27T09:19:59.323Z,45.82
2023-03-27T09:23:59.336Z,46.25
2023-03-27T09:27:59.477Z,46.96
2023-03-27T09:31:59.409Z,47.32
2023-03-27T09:35:59.784Z,47.05
2023-03-27T09:39:59.617Z,46.88
2023-03-27T09:43:59.610Z,46.96
2023-03-27T09:47:59.478Z,47.46
2023-03-27T09:51:59.551Z,46.33
2023-03-27T09:56:01.001Z,45.99
2023-03-27T09:59:59.454Z,45.68
2023-03-27T10:03:59.300Z,45.54
2023-03-27T10:07:59.169Z,44.52
2023-03-27T10:11:59.083Z,41.01
2023-03-27T10:15:59.508Z,45.48
2023-03-27T10:19:59.013Z,43.64
2023-03-27T10:23:58.866Z,44.24
2023-03-27T10:27:58.759Z,43.53
2023-03-27T10:31:59.054Z,44.23
2023-03-27T10:35:59.140Z,44.56
2023-03-27T10:39:58.550Z,43.35
2023-03-27T10:43:58.520Z,43.83
2023-03-27T10:47:58.491Z,44.47
2023-03-27T10:51:58.320Z,45.13
2023-03-27T10:55:58.197Z,44.23
2023-03-27T10:59:58.155Z,45.35
2023-03-27T11:03:58.553Z,44.08
2023-03-27T11:07:57.995Z,43.25
2023-03-27T11:11:58.030Z,44.18
2023-03-27T11:15:57.770Z,43.79
2023-03-27T11:19:57.827Z,44.32
2023-03-27T11:23:58.017Z,45.40
2023-03-27T11:27:57.571Z,45.34
2023-03-27T11:31:57.516Z,46.50
2023-03-27T11:35:57.564Z,46.25
2023-03-27T11:39:57.539Z,45.85
2023-03-27T11:43:57.275Z,45.17
2023-03-27T11:47:57.265Z,43.97
2023-03-27T11:51:57.322Z,46.02
2023-03-27T11:55:57.532Z,46.37
2023-03-27T11:59:57.175Z,46.46
2023-03-27T12:03:57.237Z,46.75
2023-03-27T12:07:57.501Z,47.31
2023-03-27T12:11:57.155Z,48.02
2023-03-27T12:15:57.513Z,47.71
2023-03-27T12:19:57.002Z,47.81
2023-03-27T12:23:57.014Z,48.88
2023-03-27T12:27:56.839Z,49.99
2023-03-27T12:31:56.796Z,48.57
2023-03-27T12:35:56.677Z,51.63
2023-03-27T12:39:56.559Z,50.75
2023-03-27T12:43:56.543Z,50.11
2023-03-27T12:47:56.647Z,48.72
2023-03-27T12:51:56.591Z,48.03
2023-03-27T12:55:56.585Z,48.06
2023-03-27T12:59:56.380Z,48.42
2023-03-27T13:03:56.382Z,47.69
2023-03-27T13:07:56.184Z,47.80
2023-03-27T13:11:56.112Z,47.84
2023-03-27T13:15:56.395Z,48.15
2023-03-27T13:19:55.962Z,47.92
2023-03-27T13:23:55.836Z,47.53
2023-03-27T13:27:55.778Z,47.71
2023-03-27T13:31:55.842Z,47.86
2023-03-27T13:35:55.981Z,47.96
2023-03-27T13:39:55.663Z,47.54
2023-03-27T13:43:55.579Z,47.54
2023-03-27T13:47:55.521Z,47.58
2023-03-27T13:51:55.435Z,47.07
2023-03-27T13:55:55.620Z,46.28
2023-03-27T13:59:55.304Z,46.53
2023-03-27T14:03:55.432Z,46.41
2023-03-27T14:07:55.354Z,46.58
2023-03-27T14:11:55.297Z,46.78
2023-03-27T14:15:55.696Z,46.55
2023-03-27T14:19:55.164Z,46.03
2023-03-27T14:23:55.096Z,44.76
2023-03-27T14:27:55.024Z,45.73
2023-03-27T14:31:54.970Z,45.70
2023-03-27T14:35:54.922Z,46.44
2023-03-27T14:39:54.761Z,45.63
2023-03-27T14:43:54.722Z,46.09
2023-03-27T14:47:54.662Z,46.54
2023-03-27T14:51:54.840Z,46.73
2023-03-27T14:55:54.866Z,46.32
2023-03-27T14:59:54.706Z,47.23
2023-03-27T15:03:54.632Z,47.50
2023-03-27T15:07:54.579Z,46.05
2023-03-27T15:11:54.510Z,46.51
2023-03-27T15:15:54.515Z,46.21
2023-03-27T15:19:54.382Z,46.73
2023-03-27T15:23:54.366Z,46.28
2023-03-27T15:27:54.251Z,45.72
2023-03-27T15:31:54.334Z,45.94
2023-03-27T15:35:54.357Z,46.94
2023-03-27T15:39:54.185Z,46.79
2023-03-27T15:43:54.171Z,45.26
2023-03-27T15:47:54.130Z,45.74
2023-03-27T15:51:54.045Z,44.48
2023-03-27T15:55:54.015Z,45.15
2023-03-27T15:59:53.981Z,45.86
2023-03-27T16:03:56.155Z,46.32
2023-03-27T16:07:53.756Z,46.86
2023-03-27T16:11:53.673Z,47.16
2023-03-27T16:15:53.618Z,46.72
2023-03-27T16:19:53.529Z,46.95
2023-03-27T16:23:53.440Z,47.11
2023-03-27T16:27:53.372Z,46.22
2023-03-27T16:31:53.307Z,45.82
2023-03-27T16:35:53.310Z,46.48
2023-03-27T16:39:53.129Z,46.61
2023-03-27T16:43:53.059Z,46.36
2023-03-27T16:47:53.563Z,46.41
2023-03-27T16:51:53.039Z,47.00
2023-03-27T16:55:53.058Z,46.22
2023-03-27T16:59:53.111Z,45.90
2023-03-27T17:03:53.046Z,41.36
2023-03-27T17:07:53.107Z,40.85
2023-03-27T17:11:53.141Z,38.49
2023-03-27T17:15:53.196Z,36.93
2023-03-27T17:19:53.309Z,36.17
2023-03-27T17:23:53.370Z,35.50
2023-03-27T17:27:53.441Z,36.38
2023-03-27T17:31:53.581Z,36.06
2023-03-27T17:35:53.689Z,34.74
2023-03-27T17:39:53.764Z,34.96
2023-03-27T17:43:53.919Z,33.80
2023-03-27T17:47:54.130Z,33.62
2023-03-27T17:51:54.177Z,33.72
2023-03-27T17:55:54.340Z,32.70
2023-03-27T17:59:54.519Z,32.34
2023-03-27T18:03:54.762Z,31.76
2023-03-27T18:07:54.868Z,31.77
2023-03-27T18:11:55.085Z,31.53
2023-03-27T18:15:55.298Z,31.15
2023-03-27T18:19:55.435Z,31.24
2023-03-27T18:23:55.613Z,31.49
2023-03-27T18:27:55.546Z,30.99
2023-03-27T18:31:55.558Z,30.28
2023-03-27T18:35:55.699Z,30.32
2023-03-27T18:39:55.374Z,30.26
2023-03-27T18:43:55.355Z,29.71
2023-03-27T18:47:55.295Z,29.41
2023-03-27T18:51:55.240Z,29.43
2023-03-27T18:55:55.254Z,29.41
2023-03-27T18:59:55.157Z,29.03
2023-03-27T19:03:55.109Z,30.10
2023-03-27T19:07:55.058Z,28.51
2023-03-27T19:11:55.003Z,28.48
2023-03-27T19:15:54.957Z,28.35
2023-03-27T19:19:54.933Z,28.07
2023-03-27T19:23:54.864Z,28.73
2023-03-27T19:27:54.810Z,28.76
2023-03-27T19:31:54.753Z,27.36
2023-03-27T19:35:54.801Z,28.28
2023-03-27T19:39:54.672Z,27.53
2023-03-27T19:43:54.789Z,27.37
2023-03-27T19:47:54.777Z,27.80
2023-03-27T19:51:54.714Z,26.99
2023-03-27T19:55:54.637Z,26.53
2023-03-27T19:59:54.608Z,26.89
2023-03-27T20:03:54.601Z,27.32
2023-03-27T20:07:54.536Z,27.83
2023-03-27T20:11:54.496Z,26.59
2023-03-27T20:15:54.426Z,25.98
2023-03-27T20:19:54.374Z,26.64
2023-03-27T20:23:54.270Z,26.36
2023-03-27T20:27:54.267Z,26.40
2023-03-27T20:31:54.303Z,26.70
2023-03-27T20:35:54.294Z,26.20
2023-03-27T20:39:54.287Z,25.80
2023-03-27T20:43:54.296Z,25.80
2023-03-27T20:47:54.341Z,25.81
2023-03-27T20:51:54.359Z,26.03
2023-03-27T20:55:59.716Z,26.51
2023-03-27T20:59:55.289Z,26.40
2023-03-27T21:03:54.216Z,26.61
2023-03-27T21:07:54.277Z,25.87
2023-03-27T21:11:54.118Z,25.13
2023-03-27T21:15:54.097Z,25.46
2023-03-27T21:19:54.082Z,26.01
2023-03-27T21:23:54.027Z,25.34
2023-03-27T21:27:54.011Z,25.65
2023-03-27T21:31:53.993Z,25.95
2023-03-27T21:35:54.212Z,26.29
2023-03-27T21:39:53.892Z,26.22
2023-03-27T21:43:53.870Z,25.88
2023-03-27T21:47:53.928Z,26.05
2023-03-27T21:51:53.859Z,26.17
2023-03-27T21:55:53.850Z,25.89
2023-03-27T21:59:53.887Z,25.51
2023-03-27T22:03:53.850Z,25.96
2023-03-27T22:07:53.975Z,25.60
2023-03-27T22:11:53.920Z,25.64
2023-03-27T22:15:54.022Z,25.56
2023-03-27T22:19:53.926Z,25.86
2023-03-27T22:23:54.005Z,25.70
2023-03-27T22:27:53.976Z,25.73
2023-03-27T22:31:54.003Z,25.76
2023-03-27T22:35:54.047Z,26.05
2023-03-27T22:39:54.070Z,25.97
2023-03-27T22:43:54.111Z,25.99
2023-03-27T22:47:54.194Z,26.08
2023-03-27T22:51:54.220Z,26.14
2023-03-27T22:55:54.266Z,26.23
2023-03-27T22:59:54.280Z,25.80
2023-03-27T23:03:54.448Z,26.16
2023-03-27T23:07:54.404Z,25.89
2023-03-27T23:11:54.450Z,25.90
2023-03-27T23:15:54.576Z,25.80
2023-03-27T23:19:54.580Z,25.87
2023-03-27T23:23:54.661Z,25.84
2023-03-27T23:27:54.681Z,25.64
2023-03-27T23:31:54.823Z,25.94
2023-03-27T23:35:54.867Z,25.76
2023-03-27T23:39:54.903Z,25.52
2023-03-27T23:43:54.968Z,25.94
2023-03-27T23:47:55.153Z,26.03
2023-03-27T23:51:55.070Z,26.12
2023-03-27T23:55:55.172Z,25.87
2023-03-27T23:59:55.261Z,25.77
